sensor_id;sensor_type;location;lat;lon;timestamp;pressure;altitude;pressure_sealevel;temperature;humidity
3780;BME280;1905;52.482;9.802;2024-01-11T00:01:08;102895.97;;;-5.87;87.09
3780;BME280;1905;52.482;9.802;2024-01-11T00:03:39;102899.34;;;-5.88;87.08
3780;BME280;1905;52.482;9.802;2024-01-11T00:06:07;102895.97;;;-5.87;86.95
3780;BME280;1905;52.482;9.802;2024-01-11T00:08:34;102888.25;;;-5.87;86.18
3780;BME280;1905;52.482;9.802;2024-01-11T00:11:03;102882.97;;;-5.90;86.90
3780;BME280;1905;52.482;9.802;2024-01-11T00:13:31;102877.63;;;-5.93;86.86
3780;BME280;1905;52.482;9.802;2024-01-11T00:15:59;102874.78;;;-5.97;86.92
3780;BME280;1905;52.482;9.802;2024-01-11T00:18:30;102867.88;;;-5.98;86.94
3780;BME280;1905;52.482;9.802;2024-01-11T00:21:00;102876.38;;;-5.99;86.95
3780;BME280;1905;52.482;9.802;2024-01-11T00:23:28;102867.69;;;-6.01;87.11
3780;BME280;1905;52.482;9.802;2024-01-11T00:25:56;102879.06;;;-5.98;86.96
3780;BME280;1905;52.482;9.802;2024-01-11T00:28:24;102872.13;;;-5.99;86.96
3780;BME280;1905;52.482;9.802;2024-01-11T00:30:51;102868.47;;;-6.03;86.69
3780;BME280;1905;52.482;9.802;2024-01-11T00:33:19;102869.31;;;-6.03;87.03
3780;BME280;1905;52.482;9.802;2024-01-11T00:35:47;102876.19;;;-6.03;86.48
3780;BME280;1905;52.482;9.802;2024-01-11T00:38:17;102878.69;;;-6.04;86.98
3780;BME280;1905;52.482;9.802;2024-01-11T00:40:44;102880.28;;;-6.06;86.64
3780;BME280;1905;52.482;9.802;2024-01-11T00:43:12;102878.50;;;-6.07;86.81
3780;BME280;1905;52.482;9.802;2024-01-11T00:45:40;102866.44;;;-6.08;87.23
3780;BME280;1905;52.482;9.802;2024-01-11T00:48:08;102866.38;;;-6.10;86.80
3780;BME280;1905;52.482;9.802;2024-01-11T00:50:36;102876.53;;;-6.11;87.18
3780;BME280;1905;52.482;9.802;2024-01-11T00:53:04;102874.97;;;-6.09;86.83
3780;BME280;1905;52.482;9.802;2024-01-11T00:55:33;102868.81;;;-6.11;87.02
3780;BME280;1905;52.482;9.802;2024-01-11T00:58:00;102868.81;;;-6.11;86.90
3780;BME280;1905;52.482;9.802;2024-01-11T01:00:28;102863.63;;;-6.13;86.91
3780;BME280;1905;52.482;9.802;2024-01-11T01:02:56;102859.97;;;-6.16;86.91
3780;BME280;1905;52.482;9.802;2024-01-11T01:05:24;102847.09;;;-6.16;86.89
3780;BME280;1905;52.482;9.802;2024-01-11T01:07:51;102842.78;;;-6.17;86.97
3780;BME280;1905;52.482;9.802;2024-01-11T01:10:19;102836.66;;;-6.19;86.45
3780;BME280;1905;52.482;9.802;2024-01-11T01:12:48;102832.50;;;-6.17;86.67
3780;BME280;1905;52.482;9.802;2024-01-11T01:15:16;102853.84;;;-6.18;86.55
3780;BME280;1905;52.482;9.802;2024-01-11T01:17:44;102843.38;;;-6.21;86.83
3780;BME280;1905;52.482;9.802;2024-01-11T01:20:11;102827.00;;;-6.23;86.93
3780;BME280;1905;52.482;9.802;2024-01-11T01:22:39;102830.47;;;-6.23;86.51
3780;BME280;1905;52.482;9.802;2024-01-11T01:25:07;102836.38;;;-6.24;87.16
3780;BME280;1905;52.482;9.802;2024-01-11T01:27:35;102854.31;;;-6.25;86.89
3780;BME280;1905;52.482;9.802;2024-01-11T01:30:05;102860.41;;;-6.23;86.46
3780;BME280;1905;52.482;9.802;2024-01-11T01:32:33;102844.03;;;-6.25;86.95
3780;BME280;1905;52.482;9.802;2024-01-11T01:35:01;102848.34;;;-6.24;86.86
3780;BME280;1905;52.482;9.802;2024-01-11T01:37:29;102840.44;;;-6.27;86.82
3780;BME280;1905;52.482;9.802;2024-01-11T01:39:57;102841.28;;;-6.28;86.94
3780;BME280;1905;52.482;9.802;2024-01-11T01:42:25;102860.03;;;-6.29;87.02
3780;BME280;1905;52.482;9.802;2024-01-11T01:44:53;102853.13;;;-6.30;86.91
3780;BME280;1905;52.482;9.802;2024-01-11T01:47:22;102849.56;;;-6.32;86.87
3780;BME280;1905;52.482;9.802;2024-01-11T01:49:50;102860.75;;;-6.32;86.95
3780;BME280;1905;52.482;9.802;2024-01-11T01:52:19;102856.31;;;-6.34;86.78
3780;BME280;1905;52.482;9.802;2024-01-11T01:54:47;102851.19;;;-6.34;86.60
3780;BME280;1905;52.482;9.802;2024-01-11T01:57:16;102849.50;;;-6.34;87.17
3780;BME280;1905;52.482;9.802;2024-01-11T01:59:48;102847.66;;;-6.36;86.88
3780;BME280;1905;52.482;9.802;2024-01-11T02:02:17;102830.63;;;-6.34;86.59
3780;BME280;1905;52.482;9.802;2024-01-11T02:04:48;102836.47;;;-6.37;86.95
3780;BME280;1905;52.482;9.802;2024-01-11T02:07:16;102836.34;;;-6.38;86.81
3780;BME280;1905;52.482;9.802;2024-01-11T02:09:44;102826.19;;;-6.37;86.69
3780;BME280;1905;52.482;9.802;2024-01-11T02:12:12;102826.19;;;-6.37;86.43
3780;BME280;1905;52.482;9.802;2024-01-11T02:14:41;102843.91;;;-6.41;86.87
3780;BME280;1905;52.482;9.802;2024-01-11T02:17:09;102837.00;;;-6.42;86.96
3780;BME280;1905;52.482;9.802;2024-01-11T02:19:37;102842.84;;;-6.45;87.20
3780;BME280;1905;52.482;9.802;2024-01-11T02:22:10;102840.16;;;-6.46;87.07
3780;BME280;1905;52.482;9.802;2024-01-11T02:24:41;102826.53;;;-6.45;86.83
3780;BME280;1905;52.482;9.802;2024-01-11T02:27:09;102830.97;;;-6.43;87.09
3780;BME280;1905;52.482;9.802;2024-01-11T02:29:37;102812.00;;;-6.45;87.07
3780;BME280;1905;52.482;9.802;2024-01-11T02:32:05;102814.56;;;-6.45;86.81
3780;BME280;1905;52.482;9.802;2024-01-11T02:34:35;102823.00;;;-6.47;86.80
3780;BME280;1905;52.482;9.802;2024-01-11T02:37:04;102818.75;;;-6.47;86.87
3780;BME280;1905;52.482;9.802;2024-01-11T02:39:32;102823.88;;;-6.47;87.07
3780;BME280;1905;52.482;9.802;2024-01-11T02:42:01;102826.34;;;-6.48;86.88
3780;BME280;1905;52.482;9.802;2024-01-11T02:44:29;102826.34;;;-6.48;87.06
3780;BME280;1905;52.482;9.802;2024-01-11T02:46:57;102823.59;;;-6.51;86.93
3780;BME280;1905;52.482;9.802;2024-01-11T02:49:25;102824.56;;;-6.49;86.43
3780;BME280;1905;52.482;9.802;2024-01-11T02:51:53;102821.84;;;-6.52;86.42
3780;BME280;1905;52.482;9.802;2024-01-11T02:54:21;102824.22;;;-6.55;86.83
3780;BME280;1905;52.482;9.802;2024-01-11T02:56:48;102834.69;;;-6.52;86.85
3780;BME280;1905;52.482;9.802;2024-01-11T02:59:17;102838.75;;;-6.56;86.88
3780;BME280;1905;52.482;9.802;2024-01-11T03:01:45;102839.72;;;-6.54;86.99
3780;BME280;1905;52.482;9.802;2024-01-11T03:04:13;102836.25;;;-6.54;86.84
3780;BME280;1905;52.482;9.802;2024-01-11T03:06:41;102840.41;;;-6.56;86.64
3780;BME280;1905;52.482;9.802;2024-01-11T03:09:09;102825.72;;;-6.59;87.13
3780;BME280;1905;52.482;9.802;2024-01-11T03:11:37;102831.75;;;-6.58;87.11
3780;BME280;1905;52.482;9.802;2024-01-11T03:14:05;102822.25;;;-6.59;86.90
3780;BME280;1905;52.482;9.802;2024-01-11T03:16:34;102813.75;;;-6.58;86.88
3780;BME280;1905;52.482;9.802;2024-01-11T03:19:02;102822.25;;;-6.59;86.93
3780;BME280;1905;52.482;9.802;2024-01-11T03:21:30;102821.47;;;-6.58;86.91
3780;BME280;1905;52.482;9.802;2024-01-11T03:23:58;102834.13;;;-6.61;86.85
3780;BME280;1905;52.482;9.802;2024-01-11T03:26:26;102834.13;;;-6.61;86.95
3780;BME280;1905;52.482;9.802;2024-01-11T03:28:55;102838.47;;;-6.60;86.82
3780;BME280;1905;52.482;9.802;2024-01-11T03:31:24;102848.44;;;-6.65;86.80
3780;BME280;1905;52.482;9.802;2024-01-11T03:33:54;102856.25;;;-6.63;86.67
3780;BME280;1905;52.482;9.802;2024-01-11T03:36:23;102857.84;;;-6.66;86.67
3780;BME280;1905;52.482;9.802;2024-01-11T03:38:52;102854.56;;;-6.63;86.79
3780;BME280;1905;52.482;9.802;2024-01-11T03:41:20;102851.13;;;-6.63;86.61
3780;BME280;1905;52.482;9.802;2024-01-11T03:43:47;102842.41;;;-6.66;86.96
3780;BME280;1905;52.482;9.802;2024-01-11T03:46:15;102845.81;;;-6.67;86.95
3780;BME280;1905;52.482;9.802;2024-01-11T03:48:43;102839.78;;;-6.67;86.70
3780;BME280;1905;52.482;9.802;2024-01-11T03:51:12;102839.78;;;-6.67;86.70
3780;BME280;1905;52.482;9.802;2024-01-11T03:53:40;102833.75;;;-6.68;86.85
3780;BME280;1905;52.482;9.802;2024-01-11T03:56:08;102835.53;;;-6.67;86.98
3780;BME280;1905;52.482;9.802;2024-01-11T03:58:36;102838.09;;;-6.67;86.89
3780;BME280;1905;52.482;9.802;2024-01-11T04:01:08;102837.13;;;-6.69;86.72
3780;BME280;1905;52.482;9.802;2024-01-11T04:03:37;102841.44;;;-6.68;86.57
3780;BME280;1905;52.482;9.802;2024-01-11T04:06:05;102833.75;;;-6.68;86.88
3780;BME280;1905;52.482;9.802;2024-01-11T04:08:34;102826.84;;;-6.69;86.51
3780;BME280;1905;52.482;9.802;2024-01-11T04:11:03;102832.78;;;-6.70;86.74
3780;BME280;1905;52.482;9.802;2024-01-11T04:13:31;102833.56;;;-6.71;86.45
3780;BME280;1905;52.482;9.802;2024-01-11T04:15:58;102831.00;;;-6.71;86.67
3780;BME280;1905;52.482;9.802;2024-01-11T04:18:26;102827.53;;;-6.71;86.85
3780;BME280;1905;52.482;9.802;2024-01-11T04:20:54;102823.09;;;-6.74;86.63
3780;BME280;1905;52.482;9.802;2024-01-11T04:23:22;102823.28;;;-6.71;86.44
3780;BME280;1905;52.482;9.802;2024-01-11T04:25:51;102819.75;;;-6.73;86.57
3780;BME280;1905;52.482;9.802;2024-01-11T04:28:19;102824.00;;;-6.73;86.89
3780;BME280;1905;52.482;9.802;2024-01-11T04:30:47;102821.41;;;-6.73;86.56
3780;BME280;1905;52.482;9.802;2024-01-11T04:33:15;102821.34;;;-6.75;86.68
3780;BME280;1905;52.482;9.802;2024-01-11T04:35:43;102815.50;;;-6.72;86.67
3780;BME280;1905;52.482;9.802;2024-01-11T04:38:11;102817.09;;;-6.74;86.68
3780;BME280;1905;52.482;9.802;2024-01-11T04:40:38;102815.25;;;-6.77;87.09
3780;BME280;1905;52.482;9.802;2024-01-11T04:43:08;102811.66;;;-6.79;86.68
3780;BME280;1905;52.482;9.802;2024-01-11T04:45:35;102811.66;;;-6.79;86.79
3780;BME280;1905;52.482;9.802;2024-01-11T04:48:04;102816.81;;;-6.79;86.43
3780;BME280;1905;52.482;9.802;2024-01-11T04:50:32;102839.03;;;-6.79;86.74
3780;BME280;1905;52.482;9.802;2024-01-11T04:52:59;102845.03;;;-6.79;86.82
3780;BME280;1905;52.482;9.802;2024-01-11T04:55:27;102849.28;;;-6.79;86.71
3780;BME280;1905;52.482;9.802;2024-01-11T04:57:55;102862.94;;;-6.80;86.60
3780;BME280;1905;52.482;9.802;2024-01-11T05:00:24;102872.31;;;-6.81;86.72
3780;BME280;1905;52.482;9.802;2024-01-11T05:02:52;102863.84;;;-6.80;86.55
3780;BME280;1905;52.482;9.802;2024-01-11T05:05:20;102872.25;;;-6.82;86.49
3780;BME280;1905;52.482;9.802;2024-01-11T05:07:48;102878.25;;;-6.82;86.87
3780;BME280;1905;52.482;9.802;2024-01-11T05:10:15;102881.81;;;-6.80;86.75
3780;BME280;1905;52.482;9.802;2024-01-11T05:12:43;102867.00;;;-6.84;86.60
3780;BME280;1905;52.482;9.802;2024-01-11T05:15:11;102873.09;;;-6.82;86.75
3780;BME280;1905;52.482;9.802;2024-01-11T05:17:40;102873.22;;;-6.80;86.45
3780;BME280;1905;52.482;9.802;2024-01-11T05:20:09;102855.81;;;-6.84;86.98
3780;BME280;1905;52.482;9.802;2024-01-11T05:22:38;102844.84;;;-6.82;86.39
3780;BME280;1905;52.482;9.802;2024-01-11T05:25:06;102847.34;;;-6.83;86.59
3780;BME280;1905;52.482;9.802;2024-01-11T05:27:34;102845.66;;;-6.83;86.97
3780;BME280;1905;52.482;9.802;2024-01-11T05:30:02;102850.00;;;-6.82;86.85
3780;BME280;1905;52.482;9.802;2024-01-11T05:32:29;102844.66;;;-6.85;86.44
3780;BME280;1905;52.482;9.802;2024-01-11T05:34:59;102832.84;;;-6.83;86.54
3780;BME280;1905;52.482;9.802;2024-01-11T05:37:26;102837.97;;;-6.83;86.89
3780;BME280;1905;52.482;9.802;2024-01-11T05:39:55;102817.44;;;-6.83;86.52
3780;BME280;1905;52.482;9.802;2024-01-11T05:42:24;102836.28;;;-6.82;86.50
3780;BME280;1905;52.482;9.802;2024-01-11T05:44:52;102836.19;;;-6.84;86.69
3780;BME280;1905;52.482;9.802;2024-01-11T05:47:27;102849.13;;;-6.82;86.50
3780;BME280;1905;52.482;9.802;2024-01-11T05:50:09;102848.25;;;-6.83;86.58
3780;BME280;1905;52.482;9.802;2024-01-11T05:52:38;102837.78;;;-6.86;86.40
3780;BME280;1905;52.482;9.802;2024-01-11T05:55:06;102829.09;;;-6.88;86.44
3780;BME280;1905;52.482;9.802;2024-01-11T05:57:34;102836.00;;;-6.87;86.93
3780;BME280;1905;52.482;9.802;2024-01-11T06:00:02;102840.34;;;-6.86;86.49
3780;BME280;1905;52.482;9.802;2024-01-11T06:02:31;102849.81;;;-6.85;86.64
3780;BME280;1905;52.482;9.802;2024-01-11T06:04:59;102861.66;;;-6.87;86.74
3780;BME280;1905;52.482;9.802;2024-01-11T06:07:28;102842.91;;;-6.86;86.37
3780;BME280;1905;52.482;9.802;2024-01-11T06:09:56;102837.78;;;-6.86;86.43
3780;BME280;1905;52.482;9.802;2024-01-11T06:12:24;102830.84;;;-6.87;86.40
3780;BME280;1905;52.482;9.802;2024-01-11T06:14:52;102825.72;;;-6.87;86.65
3780;BME280;1905;52.482;9.802;2024-01-11T06:17:21;102821.41;;;-6.88;86.70
3780;BME280;1905;52.482;9.802;2024-01-11T06:19:51;102815.44;;;-6.87;86.64
3780;BME280;1905;52.482;9.802;2024-01-11T06:22:19;102824.13;;;-6.85;86.45
3780;BME280;1905;52.482;9.802;2024-01-11T06:24:48;102826.69;;;-6.85;86.51
3780;BME280;1905;52.482;9.802;2024-01-11T06:27:17;102822.97;;;-6.90;86.42
3780;BME280;1905;52.482;9.802;2024-01-11T06:29:45;102831.56;;;-6.89;86.59
3780;BME280;1905;52.482;9.802;2024-01-11T06:32:13;102830.66;;;-6.90;86.52
3780;BME280;1905;52.482;9.802;2024-01-11T06:34:41;102828.41;;;-6.85;86.50
3780;BME280;1905;52.482;9.802;2024-01-11T06:37:12;102829.19;;;-6.86;86.60
3780;BME280;1905;52.482;9.802;2024-01-11T06:39:40;102814.41;;;-6.90;86.51
3780;BME280;1905;52.482;9.802;2024-01-11T06:42:10;102815.44;;;-6.87;86.78
3780;BME280;1905;52.482;9.802;2024-01-11T06:44:38;102818.84;;;-6.88;86.64
3780;BME280;1905;52.482;9.802;2024-01-11T06:47:06;102823.06;;;-6.88;86.78
3780;BME280;1905;52.482;9.802;2024-01-11T06:49:34;102825.53;;;-6.90;86.52
3780;BME280;1905;52.482;9.802;2024-01-11T06:52:02;102837.59;;;-6.89;86.96
3780;BME280;1905;52.482;9.802;2024-01-11T06:54:31;102839.38;;;-6.88;86.71
3780;BME280;1905;52.482;9.802;2024-01-11T06:56:59;102833.22;;;-6.90;86.47
3780;BME280;1905;52.482;9.802;2024-01-11T06:59:29;102837.59;;;-6.89;86.60
3780;BME280;1905;52.482;9.802;2024-01-11T07:01:57;102856.53;;;-6.87;86.64
3780;BME280;1905;52.482;9.802;2024-01-11T07:04:24;102880.44;;;-6.88;86.37
3780;BME280;1905;52.482;9.802;2024-01-11T07:06:52;102886.38;;;-6.89;86.76
3780;BME280;1905;52.482;9.802;2024-01-11T07:09:20;102893.19;;;-6.89;86.57
3780;BME280;1905;52.482;9.802;2024-01-11T07:11:48;102899.00;;;-6.92;86.60
3780;BME280;1905;52.482;9.802;2024-01-11T07:14:16;102899.00;;;-6.92;86.86
3780;BME280;1905;52.482;9.802;2024-01-11T07:16:45;102892.09;;;-6.93;86.92
3780;BME280;1905;52.482;9.802;2024-01-11T07:19:13;102890.53;;;-6.91;86.78
3780;BME280;1905;52.482;9.802;2024-01-11T07:21:41;102895.66;;;-6.91;86.47
3780;BME280;1905;52.482;9.802;2024-01-11T07:24:09;102888.22;;;-6.86;86.69
3780;BME280;1905;52.482;9.802;2024-01-11T07:26:36;102887.34;;;-6.87;86.60
3780;BME280;1905;52.482;9.802;2024-01-11T07:29:04;102887.16;;;-6.90;86.73
3780;BME280;1905;52.482;9.802;2024-01-11T07:31:32;102876.88;;;-6.90;86.73
3780;BME280;1905;52.482;9.802;2024-01-11T07:34:01;102873.72;;;-6.86;86.70
3780;BME280;1905;52.482;9.802;2024-01-11T07:36:29;102882.41;;;-6.84;86.13
3780;BME280;1905;52.482;9.802;2024-01-11T07:38:57;102879.63;;;-6.87;86.59
3780;BME280;1905;52.482;9.802;2024-01-11T07:41:24;102888.31;;;-6.85;86.29
3780;BME280;1905;52.482;9.802;2024-01-11T07:43:52;102884.00;;;-6.86;87.05
3780;BME280;1905;52.482;9.802;2024-01-11T07:46:25;102887.53;;;-6.84;86.65
3780;BME280;1905;52.482;9.802;2024-01-11T07:49:06;102873.03;;;-6.83;86.40
3780;BME280;1905;52.482;9.802;2024-01-11T07:51:34;102861.84;;;-6.84;86.66
3780;BME280;1905;52.482;9.802;2024-01-11T07:54:02;102858.50;;;-6.83;86.36
3780;BME280;1905;52.482;9.802;2024-01-11T07:56:30;102861.97;;;-6.82;86.51
3780;BME280;1905;52.482;9.802;2024-01-11T07:58:58;102861.16;;;-6.81;86.64
3780;BME280;1905;52.482;9.802;2024-01-11T08:01:25;102851.59;;;-6.84;86.57
3780;BME280;1905;52.482;9.802;2024-01-11T08:03:53;102846.84;;;-6.78;86.41
3780;BME280;1905;52.482;9.802;2024-01-11T08:06:23;102854.34;;;-6.81;86.94
3780;BME280;1905;52.482;9.802;2024-01-11T08:08:51;102854.25;;;-6.82;86.93
3780;BME280;1905;52.482;9.802;2024-01-11T08:11:19;102857.09;;;-6.78;86.70
3780;BME280;1905;52.482;9.802;2024-01-11T08:13:47;102867.97;;;-6.82;86.73
3780;BME280;1905;52.482;9.802;2024-01-11T08:16:16;102879.13;;;-6.81;86.72
3780;BME280;1905;52.482;9.802;2024-01-11T08:18:44;102879.44;;;-6.77;86.89
3780;BME280;1905;52.482;9.802;2024-01-11T08:21:12;102872.69;;;-6.75;87.08
3780;BME280;1905;52.482;9.802;2024-01-11T08:23:42;102879.44;;;-6.77;86.52
3780;BME280;1905;52.482;9.802;2024-01-11T08:26:13;102879.59;;;-6.74;86.48
3780;BME280;1905;52.482;9.802;2024-01-11T08:28:41;102878.44;;;-6.79;86.83
3780;BME280;1905;52.482;9.802;2024-01-11T08:31:09;102882.16;;;-6.74;86.90
3780;BME280;1905;52.482;9.802;2024-01-11T08:33:36;102891.66;;;-6.73;86.85
3780;BME280;1905;52.482;9.802;2024-01-11T08:36:05;102902.81;;;-6.72;87.20
3780;BME280;1905;52.482;9.802;2024-01-11T08:38:34;102899.53;;;-6.70;86.83
3780;BME280;1905;52.482;9.802;2024-01-11T08:41:03;102907.44;;;-6.67;86.67
3780;BME280;1905;52.482;9.802;2024-01-11T08:43:32;102885.94;;;-6.69;87.17
3780;BME280;1905;52.482;9.802;2024-01-11T08:46:00;102883.34;;;-6.69;87.13
3780;BME280;1905;52.482;9.802;2024-01-11T08:48:28;102892.03;;;-6.67;87.33
3780;BME280;1905;52.482;9.802;2024-01-11T08:50:56;102903.34;;;-6.63;86.78
3780;BME280;1905;52.482;9.802;2024-01-11T08:53:24;102902.31;;;-6.67;87.50
3780;BME280;1905;52.482;9.802;2024-01-11T08:55:52;102903.47;;;-6.61;87.28
3780;BME280;1905;52.482;9.802;2024-01-11T08:58:22;102900.19;;;-6.59;87.43
3780;BME280;1905;52.482;9.802;2024-01-11T09:00:49;102892.56;;;-6.57;87.69
3780;BME280;1905;52.482;9.802;2024-01-11T09:03:17;102883.66;;;-6.49;87.37
3780;BME280;1905;52.482;9.802;2024-01-11T09:05:45;102886.75;;;-6.55;87.78
3780;BME280;1905;52.482;9.802;2024-01-11T09:08:13;102895.72;;;-6.48;87.48
3780;BME280;1905;52.482;9.802;2024-01-11T09:10:42;102893.34;;;-6.45;87.66
3780;BME280;1905;52.482;9.802;2024-01-11T09:13:09;102907.34;;;-6.40;87.29
3780;BME280;1905;52.482;9.802;2024-01-11T09:15:41;102907.53;;;-6.37;87.58
3780;BME280;1905;52.482;9.802;2024-01-11T09:18:09;102901.78;;;-6.33;87.76
3780;BME280;1905;52.482;9.802;2024-01-11T09:20:37;102907.09;;;-6.30;87.62
3780;BME280;1905;52.482;9.802;2024-01-11T09:23:05;102915.88;;;-6.27;87.59
3780;BME280;1905;52.482;9.802;2024-01-11T09:25:33;102910.03;;;-6.24;87.74
3780;BME280;1905;52.482;9.802;2024-01-11T09:28:01;102901.72;;;-6.20;87.62
3780;BME280;1905;52.482;9.802;2024-01-11T09:30:30;102899.41;;;-6.16;87.45
3780;BME280;1905;52.482;9.802;2024-01-11T09:32:59;102887.44;;;-6.15;87.92
3780;BME280;1905;52.482;9.802;2024-01-11T09:35:27;102880.97;;;-6.09;87.97
3780;BME280;1905;52.482;9.802;2024-01-11T09:37:54;102871.69;;;-6.07;88.11
3780;BME280;1905;52.482;9.802;2024-01-11T09:40:23;102861.59;;;-6.03;88.26
3780;BME280;1905;52.482;9.802;2024-01-11T09:42:50;102853.34;;;-5.98;88.70
3780;BME280;1905;52.482;9.802;2024-01-11T09:45:18;102848.28;;;-5.96;90.14
3780;BME280;1905;52.482;9.802;2024-01-11T09:47:46;102854.50;;;-5.93;90.20
3780;BME280;1905;52.482;9.802;2024-01-11T09:50:17;102845.34;;;-5.88;90.12
3780;BME280;1905;52.482;9.802;2024-01-11T09:52:45;102828.31;;;-5.86;90.24
3780;BME280;1905;52.482;9.802;2024-01-11T09:55:14;102845.13;;;-5.76;90.33
3780;BME280;1905;52.482;9.802;2024-01-11T09:57:44;102851.13;;;-5.76;90.69
3780;BME280;1905;52.482;9.802;2024-01-11T10:00:15;102853.09;;;-5.72;90.78
3780;BME280;1905;52.482;9.802;2024-01-11T10:02:45;102853.78;;;-5.60;91.16
3780;BME280;1905;52.482;9.802;2024-01-11T10:05:13;102854.78;;;-5.58;91.48
3780;BME280;1905;52.482;9.802;2024-01-11T10:07:42;102853.16;;;-5.56;91.55
3780;BME280;1905;52.482;9.802;2024-01-11T10:10:10;102844.00;;;-5.51;91.29
3780;BME280;1905;52.482;9.802;2024-01-11T10:12:38;102844.38;;;-5.45;91.86
3780;BME280;1905;52.482;9.802;2024-01-11T10:15:08;102852.31;;;-5.40;92.14
3780;BME280;1905;52.482;9.802;2024-01-11T10:17:41;102848.25;;;-5.36;92.76
3780;BME280;1905;52.482;9.802;2024-01-11T10:20:10;102835.63;;;-5.32;92.42
3780;BME280;1905;52.482;9.802;2024-01-11T10:22:40;102846.09;;;-5.29;92.14
3780;BME280;1905;52.482;9.802;2024-01-11T10:25:11;102846.44;;;-5.23;92.83
3780;BME280;1905;52.482;9.802;2024-01-11T10:27:40;102845.88;;;-5.17;93.43
3780;BME280;1905;52.482;9.802;2024-01-11T10:30:10;102853.69;;;-5.16;92.54
3780;BME280;1905;52.482;9.802;2024-01-11T10:32:39;102847.19;;;-5.09;92.26
3780;BME280;1905;52.482;9.802;2024-01-11T10:35:08;102846.06;;;-4.98;94.27
3780;BME280;1905;52.482;9.802;2024-01-11T10:37:37;102853.88;;;-4.97;93.08
3780;BME280;1905;52.482;9.802;2024-01-11T10:40:08;102842.94;;;-4.93;93.22
3780;BME280;1905;52.482;9.802;2024-01-11T10:42:42;102849.28;;;-4.86;93.19
3780;BME280;1905;52.482;9.802;2024-01-11T10:45:14;102851.97;;;-4.85;92.71
3780;BME280;1905;52.482;9.802;2024-01-11T10:47:48;102839.50;;;-4.77;93.35
3780;BME280;1905;52.482;9.802;2024-01-11T10:50:18;102841.44;;;-4.73;92.90
3780;BME280;1905;52.482;9.802;2024-01-11T10:52:56;102834.91;;;-4.66;93.36
3780;BME280;1905;52.482;9.802;2024-01-11T10:55:31;102835.28;;;-4.59;93.44
3780;BME280;1905;52.482;9.802;2024-01-11T10:58:02;102839.66;;;-4.58;92.34
3780;BME280;1905;52.482;9.802;2024-01-11T11:00:30;102838.97;;;-4.54;93.97
3780;BME280;1905;52.482;9.802;2024-01-11T11:02:59;102839.63;;;-4.42;94.36
3780;BME280;1905;52.482;9.802;2024-01-11T11:05:28;102849.16;;;-4.41;93.05
3780;BME280;1905;52.482;9.802;2024-01-11T11:07:58;102839.78;;;-4.39;93.86
3780;BME280;1905;52.482;9.802;2024-01-11T11:10:28;102832.44;;;-4.31;93.07
3780;BME280;1905;52.482;9.802;2024-01-11T11:12:58;102825.75;;;-4.28;93.65
3780;BME280;1905;52.482;9.802;2024-01-11T11:15:28;102818.03;;;-4.28;93.02
3780;BME280;1905;52.482;9.802;2024-01-11T11:17:56;102821.94;;;-4.18;93.60
3780;BME280;1905;52.482;9.802;2024-01-11T11:20:24;102829.81;;;-4.15;93.37
3780;BME280;1905;52.482;9.802;2024-01-11T11:23:03;102831.94;;;-4.08;94.72
3780;BME280;1905;52.482;9.802;2024-01-11T11:25:31;102836.34;;;-4.05;94.20
3780;BME280;1905;52.482;9.802;2024-01-11T11:27:59;102827.94;;;-4.01;93.58
3780;BME280;1905;52.482;9.802;2024-01-11T11:30:32;102814.41;;;-3.97;93.67
3780;BME280;1905;52.482;9.802;2024-01-11T11:33:09;102806.88;;;-3.93;94.33
3780;BME280;1905;52.482;9.802;2024-01-11T11:35:37;102805.50;;;-3.86;95.17
3780;BME280;1905;52.482;9.802;2024-01-11T11:38:05;102796.13;;;-3.84;95.03
3780;BME280;1905;52.482;9.802;2024-01-11T11:40:33;102793.69;;;-3.81;94.81
3780;BME280;1905;52.482;9.802;2024-01-11T11:43:05;102788.00;;;-3.74;95.17
3780;BME280;1905;52.482;9.802;2024-01-11T11:45:35;102785.56;;;-3.71;94.95
3780;BME280;1905;52.482;9.802;2024-01-11T11:51:13;102769.69;;;-3.61;94.85
3780;BME280;1905;52.482;9.802;2024-01-11T11:53:46;102773.25;;;-3.59;94.99
3780;BME280;1905;52.482;9.802;2024-01-11T11:56:16;102771.78;;;-3.54;95.00
3780;BME280;1905;52.482;9.802;2024-01-11T11:58:46;102770.28;;;-3.49;95.42
3780;BME280;1905;52.482;9.802;2024-01-11T12:01:16;102772.19;;;-3.45;95.48
3780;BME280;1905;52.482;9.802;2024-01-11T12:03:45;102770.72;;;-3.40;96.49
3780;BME280;1905;52.482;9.802;2024-01-11T12:06:17;102763.94;;;-3.38;95.03
3780;BME280;1905;52.482;9.802;2024-01-11T12:08:47;102756.38;;;-3.33;94.96
3780;BME280;1905;52.482;9.802;2024-01-11T12:11:18;102746.34;;;-3.27;95.46
3780;BME280;1905;52.482;9.802;2024-01-11T12:13:47;102740.44;;;-3.25;95.39
3780;BME280;1905;52.482;9.802;2024-01-11T12:16:16;102737.28;;;-3.18;95.76
3780;BME280;1905;52.482;9.802;2024-01-11T12:18:44;102736.50;;;-3.17;95.28
3780;BME280;1905;52.482;9.802;2024-01-11T12:21:12;102744.53;;;-3.11;95.12
3780;BME280;1905;52.482;9.802;2024-01-11T12:23:39;102741.25;;;-3.07;95.89
3780;BME280;1905;52.482;9.802;2024-01-11T12:26:08;102741.38;;;-3.04;95.68
3780;BME280;1905;52.482;9.802;2024-01-11T12:28:41;102748.47;;;-2.99;95.77
3780;BME280;1905;52.482;9.802;2024-01-11T12:31:11;102753.84;;;-2.95;96.14
3780;BME280;1905;52.482;9.802;2024-01-11T12:33:42;102751.31;;;-2.93;95.48
3780;BME280;1905;52.482;9.802;2024-01-11T12:36:10;102743.81;;;-2.87;95.63
3780;BME280;1905;52.482;9.802;2024-01-11T12:38:46;102748.19;;;-2.86;95.35
3780;BME280;1905;52.482;9.802;2024-01-11T12:41:20;102737.16;;;-2.82;95.89
3780;BME280;1905;52.482;9.802;2024-01-11T12:43:51;102730.38;;;-2.80;95.29
3780;BME280;1905;52.482;9.802;2024-01-11T12:46:19;102727.94;;;-2.77;96.73
3780;BME280;1905;52.482;9.802;2024-01-11T12:48:49;102732.38;;;-2.73;96.74
3780;BME280;1905;52.482;9.802;2024-01-11T12:51:17;102733.47;;;-2.68;95.82
3780;BME280;1905;52.482;9.802;2024-01-11T12:53:48;102725.72;;;-2.68;96.29
3780;BME280;1905;52.482;9.802;2024-01-11T12:56:17;102725.84;;;-2.65;95.38
3780;BME280;1905;52.482;9.802;2024-01-11T12:58:47;102724.06;;;-2.66;95.39
3780;BME280;1905;52.482;9.802;2024-01-11T13:01:15;102720.94;;;-2.59;96.04
3780;BME280;1905;52.482;9.802;2024-01-11T13:03:44;102715.81;;;-2.58;96.35
3780;BME280;1905;52.482;9.802;2024-01-11T13:06:16;102716.91;;;-2.53;96.61
3780;BME280;1905;52.482;9.802;2024-01-11T13:08:47;102717.78;;;-2.52;95.87
3780;BME280;1905;52.482;9.802;2024-01-11T13:11:15;102719.69;;;-2.48;96.02
3780;BME280;1905;52.482;9.802;2024-01-11T13:13:45;102718.94;;;-2.46;96.22
3780;BME280;1905;52.482;9.802;2024-01-11T13:16:14;102703.56;;;-2.43;95.91
3780;BME280;1905;52.482;9.802;2024-01-11T13:18:42;102695.91;;;-2.39;96.64
3780;BME280;1905;52.482;9.802;2024-01-11T13:21:12;102689.16;;;-2.36;96.12